Time;durP1;ratioP1;P1;durP2;ratioP2;P2;SDS_P1;SDS_P2;PMS_P1;PMS_P2;Temp;Humidity;BMP_temperature;BMP_pressure;BME280_temperature;BME280_humidity;BME280_pressure;Samples;Min_cycle;Max_cycle;Signal;HPM_P1;HPM_P2
2023/10/24 00:01:51;;;;;;;10.05;3.83;;;;;;;;;;5004153;28;20065;-69
2023/10/24 00:04:17;;;;;;;12.43;4.70;;;;;;;;;;4998343;28;20473;-70
2023/10/24 00:06:42;;;;;;;15.00;3.70;;;;;;;;;;4971178;28;20026;-71
2023/10/24 00:09:07;;;;;;;11.13;3.50;;;;;;;;;;5005963;28;20029;-67
2023/10/24 00:11:33;;;;;;;10.82;3.45;;;;;;;;;;5003938;28;20014;-70
2023/10/24 00:13:59;;;;;;;11.57;3.58;;;;;;;;;;4999604;28;20419;-71
2023/10/24 00:16:24;;;;;;;14.60;3.88;;;;;;;;;;4985333;28;20029;-71
2023/10/24 00:18:49;;;;;;;12.95;3.42;;;;;;;;;;4995347;28;20724;-73
2023/10/24 00:21:14;;;;;;;17.88;3.45;;;;;;;;;;4994306;28;20730;-70
2023/10/24 00:23:39;;;;;;;10.07;3.88;;;;;;;;;;5002688;28;20010;-72
2023/10/24 00:26:05;;;;;;;10.02;3.53;;;;;;;;;;5006741;28;20536;-71
2023/10/24 00:28:30;;;;;;;10.65;3.22;;;;;;;;;;4995100;28;20469;-71
2023/10/24 00:30:55;;;;;;;8.38;3.47;;;;;;;;;;4999733;28;20030;-71
2023/10/24 00:33:20;;;;;;;14.70;3.90;;;;;;;;;;5004480;28;20048;-71
2023/10/24 00:35:46;;;;;;;9.73;3.92;;;;;;;;;;5004918;28;20017;-70
2023/10/24 00:38:11;;;;;;;15.48;4.40;;;;;;;;;;4992167;28;20010;-71
2023/10/24 00:40:37;;;;;;;11.13;4.25;;;;;;;;;;4986891;28;20022;-70
2023/10/24 00:43:05;;;;;;;14.57;4.35;;;;;;;;;;4997785;28;20101;-73
2023/10/24 00:45:31;;;;;;;;;;;;;;;;;;4997407;28;20482;-72
2023/10/24 00:47:56;;;;;;;11.68;3.40;;;;;;;;;;5003548;28;20539;-68
2023/10/24 00:50:21;;;;;;;11.32;4.45;;;;;;;;;;5003117;28;20029;-69
2023/10/24 00:52:47;;;;;;;10.85;3.85;;;;;;;;;;5004122;28;20101;-69
2023/10/24 00:55:13;;;;;;;9.80;4.00;;;;;;;;;;5000472;28;20014;-70
2023/10/24 00:57:38;;;;;;;13.57;4.00;;;;;;;;;;5002303;28;20080;-71
2023/10/24 01:00:04;;;;;;;8.45;3.50;;;;;;;;;;5004732;28;20018;-70
2023/10/24 01:02:29;;;;;;;8.98;3.47;;;;;;;;;;4999496;28;20154;-70
2023/10/24 01:04:55;;;;;;;15.18;3.95;;;;;;;;;;4999243;28;20048;-69
2023/10/24 01:07:20;;;;;;;11.18;3.85;;;;;;;;;;5000378;28;20019;-70
2023/10/24 01:09:45;;;;;;;16.10;3.42;;;;;;;;;;5001808;28;20093;-68
2023/10/24 01:12:10;;;;;;;12.82;3.67;;;;;;;;;;5001095;28;20409;-70
2023/10/24 01:14:36;;;;;;;13.18;3.53;;;;;;;;;;4992281;28;20026;-69
2023/10/24 01:17:08;;;;;;;9.55;3.55;;;;;;;;;;4989429;28;20475;-70
2023/10/24 01:19:33;;;;;;;19.85;4.03;;;;;;;;;;4999574;28;20552;-71
2023/10/24 01:21:59;;;;;;;9.38;3.72;;;;;;;;;;4996414;28;20049;-71
2023/10/24 01:24:25;;;;;;;14.52;4.40;;;;;;;;;;5004275;28;20017;-70
2023/10/24 01:26:52;;;;;;;9.77;3.45;;;;;;;;;;5001904;28;20494;-70
2023/10/24 01:29:17;;;;;;;12.48;4.43;;;;;;;;;;4999321;28;20025;-69
2023/10/24 01:31:42;;;;;;;9.35;3.55;;;;;;;;;;5004266;28;20023;-70
2023/10/24 01:34:07;;;;;;;13.45;3.83;;;;;;;;;;5000398;28;20026;-70
2023/10/24 01:36:33;;;;;;;10.55;2.90;;;;;;;;;;5002555;28;20022;-69
2023/10/24 01:38:58;;;;;;;8.95;3.42;;;;;;;;;;4997123;28;20097;-70
2023/10/24 01:41:23;;;;;;;12.85;3.67;;;;;;;;;;5023365;23;20136;-63
2023/10/24 01:43:48;;;;;;;12.00;3.72;;;;;;;;;;5009100;28;20105;-64
2023/10/24 01:46:13;;;;;;;12.60;3.65;;;;;;;;;;5008594;28;20053;-64
2023/10/24 01:48:40;;;;;;;11.30;3.08;;;;;;;;;;5009779;28;20017;-65
2023/10/24 01:51:05;;;;;;;11.15;3.55;;;;;;;;;;4994397;28;20022;-65
2023/10/24 01:53:30;;;;;;;7.03;3.08;;;;;;;;;;4990107;28;20010;-65
2023/10/24 01:55:56;;;;;;;12.68;3.85;;;;;;;;;;4987617;28;20026;-65
2023/10/24 01:58:21;;;;;;;10.15;3.40;;;;;;;;;;4989902;28;20076;-61
2023/10/24 02:00:46;;;;;;;11.20;3.33;;;;;;;;;;4989060;28;20006;-64
2023/10/24 02:03:11;;;;;;;18.02;3.92;;;;;;;;;;4989561;28;20058;-61
2023/10/24 02:05:38;;;;;;;8.98;3.30;;;;;;;;;;4988147;28;20484;-65
2023/10/24 02:08:03;;;;;;;9.65;2.88;;;;;;;;;;4989979;28;20635;-64
2023/10/24 02:10:28;;;;;;;10.23;3.20;;;;;;;;;;4988810;28;20054;-62
2023/10/24 02:12:54;;;;;;;6.78;3.30;;;;;;;;;;4989199;28;20019;-64
2023/10/24 02:15:19;;;;;;;6.32;2.75;;;;;;;;;;4984064;28;20033;-64
2023/10/24 02:17:44;;;;;;;10.23;3.25;;;;;;;;;;4990159;28;20018;-65
2023/10/24 02:20:09;;;;;;;14.52;3.38;;;;;;;;;;4983071;28;20391;-64
2023/10/24 02:22:35;;;;;;;10.65;3.35;;;;;;;;;;4993731;28;20023;-63
2023/10/24 02:25:00;;;;;;;9.10;3.38;;;;;;;;;;4992901;28;20045;-61
2023/10/24 02:27:25;;;;;;;8.70;3.47;;;;;;;;;;4990128;28;20042;-65
2023/10/24 02:29:50;;;;;;;12.10;3.70;;;;;;;;;;4992960;28;20116;-62
2023/10/24 02:32:17;;;;;;;6.85;3.00;;;;;;;;;;4992613;28;20022;-63
2023/10/24 02:34:42;;;;;;;9.27;3.45;;;;;;;;;;4992897;28;20676;-64
2023/10/24 02:37:07;;;;;;;10.00;3.53;;;;;;;;;;4992340;28;20022;-62
2023/10/24 02:39:32;;;;;;;11.45;3.40;;;;;;;;;;4993249;28;20026;-64
2023/10/24 02:41:57;;;;;;;15.93;3.40;;;;;;;;;;4991941;28;20041;-61
2023/10/24 02:44:23;;;;;;;10.13;3.13;;;;;;;;;;4992459;28;20105;-64
2023/10/24 02:46:48;;;;;;;10.88;3.28;;;;;;;;;;4991729;28;20046;-64
2023/10/24 02:49:13;;;;;;;11.77;3.85;;;;;;;;;;4992661;28;20134;-65
2023/10/24 02:51:38;;;;;;;14.95;3.65;;;;;;;;;;4993241;28;20064;-62
2023/10/24 02:54:04;;;;;;;11.82;3.92;;;;;;;;;;4993592;28;20014;-63
2023/10/24 02:56:29;;;;;;;9.07;3.33;;;;;;;;;;4991754;28;20478;-62
2023/10/24 02:58:54;;;;;;;10.95;3.22;;;;;;;;;;4992667;28;20058;-64
2023/10/24 03:01:19;;;;;;;8.30;3.28;;;;;;;;;;4992806;28;20032;-64
2023/10/24 03:03:44;;;;;;;13.63;3.17;;;;;;;;;;4981445;28;20010;-65
2023/10/24 03:06:14;;;;;;;11.63;3.45;;;;;;;;;;4991085;28;20150;-65
2023/10/24 03:08:39;;;;;;;8.38;3.33;;;;;;;;;;4993015;28;20106;-62
2023/10/24 03:11:04;;;;;;;13.75;3.35;;;;;;;;;;4991353;28;20114;-65
2023/10/24 03:13:29;;;;;;;7.97;2.95;;;;;;;;;;4992700;28;20028;-65
2023/10/24 03:15:54;;;;;;;8.85;3.45;;;;;;;;;;4978809;28;20430;-66
2023/10/24 03:18:20;;;;;;;9.57;3.38;;;;;;;;;;4992598;28;20436;-65
2023/10/24 03:20:45;;;;;;;9.73;3.22;;;;;;;;;;4989662;28;20053;-66
2023/10/24 03:23:10;;;;;;;10.25;3.53;;;;;;;;;;4992184;28;20054;-64
2023/10/24 03:25:39;;;;;;;8.38;3.63;;;;;;;;;;4991406;28;20018;-61
2023/10/24 03:28:05;;;;;;;19.48;4.15;;;;;;;;;;4989084;28;20497;-65
2023/10/24 03:30:30;;;;;;;8.15;3.53;;;;;;;;;;4992235;28;20022;-64
2023/10/24 03:32:55;;;;;;;9.27;3.38;;;;;;;;;;4991124;28;20030;-63
2023/10/24 03:35:20;;;;;;;14.75;3.70;;;;;;;;;;4992170;28;20094;-64
2023/10/24 03:37:45;;;;;;;11.57;3.72;;;;;;;;;;4980757;28;20477;-64
2023/10/24 03:40:11;;;;;;;10.07;4.38;;;;;;;;;;4991947;28;20039;-64
2023/10/24 03:42:36;;;;;;;13.95;4.95;;;;;;;;;;4991126;28;20022;-65
2023/10/24 03:45:01;;;;;;;10.40;3.97;;;;;;;;;;4991714;28;20674;-64
2023/10/24 03:47:27;;;;;;;8.32;3.20;;;;;;;;;;4992262;28;20544;-66
2023/10/24 03:49:52;;;;;;;11.95;4.25;;;;;;;;;;4991864;28;20367;-64
2023/10/24 03:52:18;;;;;;;9.48;3.95;;;;;;;;;;4992504;28;20025;-63
2023/10/24 03:54:43;;;;;;;12.00;3.85;;;;;;;;;;4992547;28;20494;-65
2023/10/24 03:57:08;;;;;;;13.98;4.20;;;;;;;;;;4990497;28;20030;-66
2023/10/24 03:59:33;;;;;;;7.40;3.63;;;;;;;;;;4991998;28;20018;-64
2023/10/24 04:01:59;;;;;;;10.75;4.60;;;;;;;;;;4991991;28;20066;-66
2023/10/24 04:04:24;;;;;;;14.15;5.60;;;;;;;;;;4991259;28;20025;-63
2023/10/24 04:06:49;;;;;;;19.00;4.07;;;;;;;;;;4991502;28;20022;-65
2023/10/24 04:09:14;;;;;;;14.27;3.97;;;;;;;;;;4991955;28;20014;-64
2023/10/24 04:11:39;;;;;;;12.20;4.22;;;;;;;;;;4990971;28;20065;-66
2023/10/24 04:14:05;;;;;;;12.32;4.43;;;;;;;;;;4989666;28;20022;-65
2023/10/24 04:16:32;;;;;;;7.25;3.80;;;;;;;;;;4985498;28;20025;-65
2023/10/24 04:18:57;;;;;;;11.10;3.70;;;;;;;;;;5000653;28;20477;-64
2023/10/24 04:21:22;;;;;;;10.82;4.35;;;;;;;;;;5001597;28;20533;-65
2023/10/24 04:23:48;;;;;;;9.38;3.97;;;;;;;;;;5001652;28;20014;-64
2023/10/24 04:26:13;;;;;;;15.75;3.88;;;;;;;;;;4989385;28;20038;-59
2023/10/24 04:28:38;;;;;;;12.00;4.15;;;;;;;;;;4987853;28;20024;-65
2023/10/24 04:31:03;;;;;;;11.02;4.30;;;;;;;;;;4987842;28;20101;-65
2023/10/24 04:33:29;;;;;;;14.13;6.05;;;;;;;;;;4990719;28;20019;-63
2023/10/24 04:35:54;;;;;;;13.43;5.22;;;;;;;;;;4989344;28;20026;-65
2023/10/24 04:38:20;;;;;;;13.77;3.88;;;;;;;;;;4989223;28;20073;-62
2023/10/24 04:40:46;;;;;;;8.73;4.00;;;;;;;;;;4989914;28;20088;-63
2023/10/24 04:43:11;;;;;;;13.27;3.90;;;;;;;;;;4988845;28;20697;-63
2023/10/24 04:45:36;;;;;;;11.50;3.28;;;;;;;;;;4988384;28;20014;-65
2023/10/24 04:48:02;;;;;;;14.77;4.97;;;;;;;;;;4989857;28;20018;-61
2023/10/24 04:50:28;;;;;;;16.65;5.05;;;;;;;;;;4989906;28;20077;-64
2023/10/24 04:52:53;;;;;;;11.30;4.22;;;;;;;;;;4990940;28;20121;-63
2023/10/24 04:55:19;;;;;;;13.20;4.00;;;;;;;;;;4990071;28;20026;-64
2023/10/24 04:57:44;;;;;;;10.90;3.80;;;;;;;;;;4989492;28;20018;-60
2023/10/24 05:00:13;;;;;;;13.98;4.22;;;;;;;;;;4989716;28;20027;-65
2023/10/24 05:02:39;;;;;;;12.82;3.85;;;;;;;;;;4972624;28;20023;-65
2023/10/24 05:05:04;;;;;;;11.98;4.03;;;;;;;;;;4988525;28;20067;-65
2023/10/24 05:07:30;;;;;;;10.40;3.63;;;;;;;;;;4990392;28;20068;-64
2023/10/24 05:09:55;;;;;;;14.05;4.18;;;;;;;;;;4989947;28;20478;-65
2023/10/24 05:12:20;;;;;;;13.50;4.32;;;;;;;;;;4989523;28;20120;-64
2023/10/24 05:14:45;;;;;;;17.13;4.72;;;;;;;;;;4989756;28;20371;-65
2023/10/24 05:17:11;;;;;;;7.72;3.83;;;;;;;;;;4989162;28;20176;-63
2023/10/24 05:19:36;;;;;;;9.38;4.45;;;;;;;;;;4988852;28;20054;-64
2023/10/24 05:22:02;;;;;;;10.75;4.70;;;;;;;;;;4990280;28;20026;-61
2023/10/24 05:24:27;;;;;;;10.00;4.05;;;;;;;;;;4990459;28;20014;-65
2023/10/24 05:26:52;;;;;;;12.07;4.13;;;;;;;;;;4987460;28;20026;-64
2023/10/24 05:29:17;;;;;;;8.05;3.83;;;;;;;;;;4987616;28;20374;-64
2023/10/24 05:31:43;;;;;;;16.17;4.55;;;;;;;;;;4989602;28;20028;-63
2023/10/24 05:34:08;;;;;;;11.35;4.65;;;;;;;;;;4983745;28;20035;-66
2023/10/24 05:36:33;;;;;;;8.00;3.65;;;;;;;;;;4980739;28;20611;-64
2023/10/24 05:38:58;;;;;;;8.45;4.55;;;;;;;;;;4982442;28;20481;-66
2023/10/24 05:41:23;;;;;;;16.05;4.45;;;;;;;;;;4980025;28;20036;-65
2023/10/24 05:44:04;;;;;;;12.02;4.57;;;;;;;;;;4948291;28;20082;-65
2023/10/24 05:46:29;;;;;;;14.13;5.47;;;;;;;;;;4965484;28;20108;-65
2023/10/24 05:48:54;;;;;;;13.15;5.25;;;;;;;;;;4983844;28;20038;-62
2023/10/24 05:51:24;;;;;;;12.85;4.38;;;;;;;;;;4980916;28;20030;-66
2023/10/24 05:53:50;;;;;;;7.68;3.95;;;;;;;;;;4982806;28;20041;-64
2023/10/24 05:56:15;;;;;;;17.73;6.50;;;;;;;;;;4968237;28;20026;-64
2023/10/24 05:58:40;;;;;;;15.68;5.85;;;;;;;;;;4987110;28;20015;-65
2023/10/24 06:01:06;;;;;;;12.65;4.90;;;;;;;;;;4987830;28;20050;-66
2023/10/24 06:03:31;;;;;;;15.73;5.68;;;;;;;;;;4988924;28;20022;-66
2023/10/24 06:05:56;;;;;;;17.42;5.80;;;;;;;;;;4986988;28;20121;-65
2023/10/24 06:08:22;;;;;;;11.18;4.80;;;;;;;;;;4989331;28;20124;-62
2023/10/24 06:10:56;;;;;;;13.18;5.00;;;;;;;;;;4988050;28;20114;-65
2023/10/24 06:13:22;;;;;;;25.55;5.15;;;;;;;;;;4987898;28;20026;-65
2023/10/24 06:15:47;;;;;;;12.02;4.95;;;;;;;;;;4975920;28;20022;-65
2023/10/24 06:18:12;;;;;;;11.45;4.53;;;;;;;;;;4987772;28;20026;-63
2023/10/24 06:20:38;;;;;;;15.63;4.90;;;;;;;;;;4979494;28;20034;-63
2023/10/24 06:23:05;;;;;;;14.73;4.82;;;;;;;;;;4988685;28;20486;-67
2023/10/24 06:25:35;;;;;;;11.10;4.57;;;;;;;;;;4979943;28;20046;-65
2023/10/24 06:28:00;;;;;;;15.57;6.35;;;;;;;;;;4966669;28;20516;-63
2023/10/24 06:30:26;;;;;;;15.68;5.47;;;;;;;;;;4983969;28;20058;-63
2023/10/24 06:32:51;;;;;;;21.38;6.00;;;;;;;;;;4986514;28;20014;-63
2023/10/24 06:35:16;;;;;;;17.77;4.82;;;;;;;;;;4988047;28;20418;-65
2023/10/24 06:37:41;;;;;;;8.70;4.97;;;;;;;;;;4989347;28;20023;-65
2023/10/24 06:40:08;;;;;;;11.45;4.35;;;;;;;;;;4988410;28;20173;-66
2023/10/24 06:42:33;;;;;;;19.40;5.20;;;;;;;;;;4988191;28;20113;-65
2023/10/24 06:44:58;;;;;;;11.10;4.43;;;;;;;;;;4987226;28;20520;-65
2023/10/24 06:47:23;;;;;;;15.73;4.38;;;;;;;;;;4990036;28;20045;-64
2023/10/24 06:49:49;;;;;;;13.50;4.72;;;;;;;;;;4988850;28;20026;-64
2023/10/24 06:52:14;;;;;;;18.15;5.40;;;;;;;;;;4989523;28;20010;-61
2023/10/24 06:54:39;;;;;;;14.85;5.30;;;;;;;;;;4985811;28;20566;-65
2023/10/24 06:57:05;;;;;;;21.38;5.72;;;;;;;;;;4981769;28;20459;-64
2023/10/24 06:59:30;;;;;;;13.55;4.05;;;;;;;;;;4987569;28;20426;-64
2023/10/24 07:01:55;;;;;;;11.07;4.82;;;;;;;;;;4991975;28;20617;-63
2023/10/24 07:04:20;;;;;;;11.85;5.70;;;;;;;;;;4986064;28;20098;-65
2023/10/24 07:06:45;;;;;;;18.08;4.93;;;;;;;;;;4987119;28;20018;-64
2023/10/24 07:09:11;;;;;;;10.65;4.80;;;;;;;;;;4990273;28;20015;-62
2023/10/24 07:11:36;;;;;;;14.50;4.75;;;;;;;;;;4991026;28;20375;-66
2023/10/24 07:14:01;;;;;;;12.10;5.00;;;;;;;;;;4990373;28;20038;-64
2023/10/24 07:16:27;;;;;;;13.63;4.70;;;;;;;;;;4990494;28;20030;-62
2023/10/24 07:18:52;;;;;;;9.40;4.25;;;;;;;;;;4990092;28;20533;-65
2023/10/24 07:21:17;;;;;;;12.73;6.85;;;;;;;;;;4991581;28;20049;-65
2023/10/24 07:23:43;;;;;;;8.23;4.07;;;;;;;;;;4992484;28;20023;-64
2023/10/24 07:26:08;;;;;;;8.98;4.55;;;;;;;;;;4990775;28;20489;-64
2023/10/24 07:28:33;;;;;;;14.18;4.45;;;;;;;;;;4988313;28;20129;-65
2023/10/24 07:30:58;;;;;;;12.90;4.00;;;;;;;;;;4990418;28;20029;-64
2023/10/24 07:33:24;;;;;;;11.65;5.60;;;;;;;;;;4992181;28;20030;-64
2023/10/24 07:35:50;;;;;;;9.68;4.57;;;;;;;;;;4985763;28;20087;-65
2023/10/24 07:38:16;;;;;;;11.75;4.82;;;;;;;;;;4990813;28;20501;-64
2023/10/24 07:40:41;;;;;;;12.48;4.63;;;;;;;;;;5009604;23;20046;-67
2023/10/24 07:43:07;;;;;;;11.65;4.57;;;;;;;;;;5005026;28;20146;-66
2023/10/24 07:45:32;;;;;;;8.65;4.30;;;;;;;;;;5006781;28;20029;-68
2023/10/24 07:47:59;;;;;;;17.58;5.10;;;;;;;;;;5008924;28;20021;-66
2023/10/24 07:50:24;;;;;;;10.50;3.92;;;;;;;;;;5014534;28;20678;-65
2023/10/24 07:52:49;;;;;;;13.35;4.05;;;;;;;;;;5005715;28;20053;-66
2023/10/24 07:55:14;;;;;;;10.18;4.15;;;;;;;;;;4995460;28;20107;-67
2023/10/24 07:57:39;;;;;;;8.68;3.63;;;;;;;;;;5004345;28;20358;-64
2023/10/24 08:00:07;;;;;;;7.57;3.47;;;;;;;;;;5000143;28;20030;-66
2023/10/24 08:02:32;;;;;;;12.38;3.97;;;;;;;;;;5002546;28;20033;-64
2023/10/24 08:04:58;;;;;;;13.82;4.57;;;;;;;;;;5006168;28;20010;-67
2023/10/24 08:07:23;;;;;;;11.32;4.60;;;;;;;;;;5015664;28;20017;-67
2023/10/24 08:09:48;;;;;;;12.02;3.65;;;;;;;;;;5003505;28;20023;-66
2023/10/24 08:12:13;;;;;;;8.60;3.70;;;;;;;;;;5004566;28;20102;-67
2023/10/24 08:14:39;;;;;;;10.43;3.63;;;;;;;;;;5022755;28;20040;-63
2023/10/24 08:17:04;;;;;;;10.18;3.70;;;;;;;;;;4991696;28;20022;-66
2023/10/24 08:19:29;;;;;;;14.13;4.10;;;;;;;;;;5007452;28;20112;-67
2023/10/24 08:21:54;;;;;;;11.75;3.63;;;;;;;;;;4998881;28;20133;-66
2023/10/24 08:24:21;;;;;;;8.00;3.28;;;;;;;;;;5011434;28;20017;-66
2023/10/24 08:26:46;;;;;;;12.48;4.00;;;;;;;;;;5001945;28;20059;-66
2023/10/24 08:29:11;;;;;;;17.15;4.00;;;;;;;;;;5003556;28;20026;-64
2023/10/24 08:31:36;;;;;;;6.35;3.00;;;;;;;;;;4999895;28;20025;-66
2023/10/24 08:34:01;;;;;;;15.65;4.07;;;;;;;;;;5002137;28;20445;-65
2023/10/24 08:36:27;;;;;;;10.35;4.00;;;;;;;;;;4999772;28;20042;-66
2023/10/24 08:38:52;;;;;;;17.55;3.88;;;;;;;;;;5016799;28;20021;-67
2023/10/24 08:41:19;;;;;;;15.52;3.60;;;;;;;;;;5006416;28;20029;-64
2023/10/24 08:43:45;;;;;;;9.40;3.13;;;;;;;;;;5005861;28;20056;-66
2023/10/24 08:46:11;;;;;;;10.18;3.83;;;;;;;;;;5005215;28;20145;-68
2023/10/24 08:48:36;;;;;;;10.15;3.80;;;;;;;;;;5009534;28;20071;-69
2023/10/24 08:51:01;;;;;;;11.73;3.38;;;;;;;;;;5007851;28;20097;-67
2023/10/24 08:53:26;;;;;;;9.43;3.40;;;;;;;;;;5005106;28;20037;-67
2023/10/24 08:55:53;;;;;;;7.45;3.47;;;;;;;;;;5007415;28;20069;-67
2023/10/24 08:58:19;;;;;;;16.35;4.20;;;;;;;;;;5007671;28;20034;-67
2023/10/24 09:00:45;;;;;;;13.77;3.92;;;;;;;;;;5009971;28;20099;-69
2023/10/24 09:03:10;;;;;;;9.80;3.70;;;;;;;;;;5008355;28;20493;-67
2023/10/24 09:05:36;;;;;;;11.48;3.33;;;;;;;;;;5006079;28;20017;-68
2023/10/24 09:08:02;;;;;;;9.93;3.28;;;;;;;;;;4997404;28;20049;-67
2023/10/24 09:10:27;;;;;;;10.30;3.53;;;;;;;;;;5003050;28;20061;-66
2023/10/24 09:12:54;;;;;;;9.82;4.10;;;;;;;;;;5002958;28;20037;-66
2023/10/24 09:15:19;;;;;;;9.32;3.53;;;;;;;;;;5006803;28;20126;-68
2023/10/24 09:17:45;;;;;;;15.88;3.42;;;;;;;;;;5014639;28;20029;-66
2023/10/24 09:20:10;;;;;;;8.10;3.40;;;;;;;;;;5006378;28;20109;-66
2023/10/24 09:22:36;;;;;;;10.93;3.45;;;;;;;;;;5011480;28;20536;-66
2023/10/24 09:25:03;;;;;;;11.55;3.53;;;;;;;;;;5010864;28;20014;-65
2023/10/24 09:27:28;;;;;;;9.93;3.70;;;;;;;;;;5003012;28;20033;-64
2023/10/24 09:29:53;;;;;;;11.80;3.63;;;;;;;;;;5002870;28;20033;-66
2023/10/24 09:32:20;;;;;;;7.55;2.88;;;;;;;;;;5004226;28;20047;-65
2023/10/24 09:34:45;;;;;;;19.70;3.28;;;;;;;;;;5004071;28;20033;-65
2023/10/24 09:37:13;;;;;;;7.50;3.10;;;;;;;;;;5002117;28;20021;-65
2023/10/24 09:39:51;;;;;;;11.00;3.28;;;;;;;;;;5013258;28;20124;-66
2023/10/24 09:42:21;;;;;;;11.35;4.10;;;;;;;;;;5004981;28;20095;-67
2023/10/24 09:44:47;;;;;;;10.45;3.33;;;;;;;;;;4991334;28;20026;-67
2023/10/24 09:47:12;;;;;;;6.72;3.00;;;;;;;;;;5004442;28;20025;-66
2023/10/24 09:49:37;;;;;;;8.35;3.35;;;;;;;;;;5004496;28;20064;-67
2023/10/24 09:52:03;;;;;;;6.30;2.80;;;;;;;;;;5001391;28;20445;-66
2023/10/24 09:54:28;;;;;;;9.30;3.28;;;;;;;;;;5002949;28;20157;-68
2023/10/24 09:56:54;;;;;;;9.98;2.60;;;;;;;;;;4998749;28;20119;-66
2023/10/24 09:59:20;;;;;;;15.25;3.45;;;;;;;;;;5000735;28;20155;-67
2023/10/24 10:01:46;;;;;;;10.68;2.60;;;;;;;;;;4992720;28;20021;-65
2023/10/24 10:04:13;;;;;;;7.10;2.83;;;;;;;;;;5010732;28;20611;-66
2023/10/24 10:06:40;;;;;;;22.60;3.58;;;;;;;;;;5003772;28;20018;-64
2023/10/24 10:09:06;;;;;;;12.60;3.67;;;;;;;;;;5001564;28;20442;-66
2023/10/24 10:11:32;;;;;;;9.40;3.75;;;;;;;;;;5004914;28;20030;-65
2023/10/24 10:14:07;;;;;;;10.85;3.50;;;;;;;;;;5014547;28;20100;-66
2023/10/24 10:16:38;;;;;;;12.00;3.45;;;;;;;;;;5000038;28;20022;-66
2023/10/24 10:19:22;;;;;;;6.30;3.13;;;;;;;;;;5018253;28;20021;-65
2023/10/24 10:22:02;;;;;;;9.23;4.22;;;;;;;;;;4999644;28;20541;-65
2023/10/24 10:24:46;;;;;;;10.80;3.20;;;;;;;;;;5001896;28;20049;-66
2023/10/24 10:27:47;;;;;;;11.10;3.05;;;;;;;;;;4988750;28;20060;-64
2023/10/24 10:30:21;;;;;;;8.65;3.17;;;;;;;;;;4894302;29;20024;-65
2023/10/24 10:32:49;;;;;;;7.55;2.97;;;;;;;;;;4984286;28;20073;-67
2023/10/24 10:35:14;;;;;;;11.40;3.05;;;;;;;;;;5004491;28;20026;-67
2023/10/24 10:37:39;;;;;;;6.97;2.95;;;;;;;;;;5004793;28;20033;-67
2023/10/24 10:40:14;;;;;;;13.15;2.85;;;;;;;;;;5005835;28;20385;-68
2023/10/24 10:42:49;;;;;;;7.57;3.05;;;;;;;;;;5005280;28;20044;-67
2023/10/24 10:45:24;;;;;;;15.18;3.42;;;;;;;;;;5011023;28;22330;-66
2023/10/24 10:47:50;;;;;;;9.75;2.95;;;;;;;;;;5003481;28;20088;-66
2023/10/24 10:50:21;;;;;;;8.98;3.13;;;;;;;;;;5003644;28;20021;-67
2023/10/24 10:53:05;;;;;;;11.85;3.38;;;;;;;;;;5003655;28;20026;-67
2023/10/24 10:55:36;;;;;;;8.13;3.10;;;;;;;;;;4999111;28;20021;-66
2023/10/24 10:58:06;;;;;;;8.65;2.83;;;;;;;;;;5002033;28;20435;-67
2023/10/24 11:00:42;;;;;;;11.27;3.00;;;;;;;;;;5008577;28;20037;-66
2023/10/24 11:03:26;;;;;;;10.15;3.17;;;;;;;;;;4999905;28;20523;-67
2023/10/24 11:05:52;;;;;;;9.38;2.72;;;;;;;;;;5002334;28;20036;-67
2023/10/24 11:08:20;;;;;;;10.35;2.95;;;;;;;;;;5001557;28;20021;-66
2023/10/24 11:10:49;;;;;;;11.00;2.83;;;;;;;;;;5003342;28;20030;-63
2023/10/24 11:13:33;;;;;;;9.65;3.42;;;;;;;;;;5001891;28;21256;-67
2023/10/24 11:16:02;;;;;;;12.40;3.25;;;;;;;;;;5001301;28;20098;-67
2023/10/24 11:18:28;;;;;;;;;;;;;;;;;;4998706;28;21440;-66
2023/10/24 11:20:53;;;;;;;11.35;2.80;;;;;;;;;;5002304;28;19921;-66
2023/10/24 11:23:19;;;;;;;11.27;3.38;;;;;;;;;;5002509;28;20034;-69
2023/10/24 11:25:44;;;;;;;9.88;3.47;;;;;;;;;;5000414;28;20033;-66
2023/10/24 11:28:09;;;;;;;6.68;2.65;;;;;;;;;;4996799;28;20605;-65
2023/10/24 11:30:34;;;;;;;7.95;2.80;;;;;;;;;;5002495;28;20018;-66
2023/10/24 11:33:03;;;;;;;8.10;3.03;;;;;;;;;;5001679;28;20098;-67
2023/10/24 11:35:28;;;;;;;12.38;3.20;;;;;;;;;;5001454;28;20088;-65
2023/10/24 11:37:53;;;;;;;11.25;3.50;;;;;;;;;;5001838;28;20030;-66
2023/10/24 11:40:18;;;;;;;11.07;4.28;;;;;;;;;;5002162;28;20018;-65
2023/10/24 11:42:44;;;;;;;8.88;3.45;;;;;;;;;;5003169;28;20026;-65
2023/10/24 11:45:09;;;;;;;7.72;3.60;;;;;;;;;;5001740;28;20014;-66
2023/10/24 11:47:34;;;;;;;8.82;3.25;;;;;;;;;;5002859;28;20153;-65
2023/10/24 11:50:00;;;;;;;8.57;3.30;;;;;;;;;;5001142;28;20037;-66
2023/10/24 11:52:25;;;;;;;10.73;3.28;;;;;;;;;;5002485;28;20511;-67
2023/10/24 11:54:52;;;;;;;19.42;4.57;;;;;;;;;;5001891;28;20615;-66
2023/10/24 11:57:17;;;;;;;9.57;3.33;;;;;;;;;;4999362;28;20147;-66
2023/10/24 11:59:43;;;;;;;10.02;3.20;;;;;;;;;;5002508;28;20124;-68
2023/10/24 12:02:09;;;;;;;9.00;4.07;;;;;;;;;;5002121;28;20053;-65
2023/10/24 12:04:35;;;;;;;9.48;3.65;;;;;;;;;;5000857;28;20378;-65
2023/10/24 12:07:03;;;;;;;9.93;3.95;;;;;;;;;;5000697;28;20087;-66
2023/10/24 12:09:31;;;;;;;8.40;3.67;;;;;;;;;;5002209;28;20028;-65
2023/10/24 12:11:56;;;;;;;10.35;3.90;;;;;;;;;;5002549;28;20034;-65
2023/10/24 12:14:22;;;;;;;11.13;5.15;;;;;;;;;;5001572;28;20030;-65
2023/10/24 12:16:47;;;;;;;14.52;4.28;;;;;;;;;;5000310;28;20508;-64
2023/10/24 12:19:12;;;;;;;8.45;3.60;;;;;;;;;;4999557;28;20171;-67
2023/10/24 12:21:37;;;;;;;9.70;3.75;;;;;;;;;;5003895;28;20054;-65
2023/10/24 12:24:03;;;;;;;7.32;3.03;;;;;;;;;;5003051;28;20026;-66
2023/10/24 12:26:28;;;;;;;7.40;3.10;;;;;;;;;;5001549;28;20037;-65
2023/10/24 12:28:53;;;;;;;7.90;3.30;;;;;;;;;;5001143;28;20144;-66
2023/10/24 12:31:18;;;;;;;12.30;3.92;;;;;;;;;;5001421;28;20052;-66
2023/10/24 12:33:43;;;;;;;10.40;3.63;;;;;;;;;;5002471;28;20026;-66
2023/10/24 12:36:09;;;;;;;13.10;3.70;;;;;;;;;;5000163;28;20018;-63
2023/10/24 12:38:37;;;;;;;8.65;3.53;;;;;;;;;;4998721;28;20014;-66
2023/10/24 12:41:04;;;;;;;7.93;3.55;;;;;;;;;;4999676;28;20025;-66
2023/10/24 12:43:29;;;;;;;11.15;3.88;;;;;;;;;;5002540;28;20080;-66
2023/10/24 12:45:54;;;;;;;11.18;4.13;;;;;;;;;;5001307;28;20025;-67
2023/10/24 12:48:19;;;;;;;11.80;3.78;;;;;;;;;;5000269;28;20233;-65
2023/10/24 12:50:45;;;;;;;7.57;3.53;;;;;;;;;;5001749;28;20097;-65
2023/10/24 12:53:10;;;;;;;9.77;4.28;;;;;;;;;;5000814;28;20021;-67
2023/10/24 12:55:35;;;;;;;10.50;3.42;;;;;;;;;;4999953;28;20030;-66
2023/10/24 12:58:00;;;;;;;12.85;3.88;;;;;;;;;;5000009;28;20507;-67
2023/10/24 13:00:26;;;;;;;11.52;3.90;;;;;;;;;;5000485;28;20129;-65
2023/10/24 13:02:51;;;;;;;10.23;4.07;;;;;;;;;;4999755;28;20034;-64
2023/10/24 13:05:16;;;;;;;10.77;4.65;;;;;;;;;;4999383;28;20075;-66
2023/10/24 13:07:41;;;;;;;17.15;5.05;;;;;;;;;;4998718;28;20049;-66
2023/10/24 13:10:07;;;;;;;12.02;4.82;;;;;;;;;;5000860;28;20369;-65
2023/10/24 13:12:32;;;;;;;13.40;4.32;;;;;;;;;;5001038;28;20458;-66
2023/10/24 13:14:58;;;;;;;13.20;4.35;;;;;;;;;;5000676;28;20113;-68
2023/10/24 13:17:23;;;;;;;11.38;4.82;;;;;;;;;;4999451;28;20102;-66
2023/10/24 13:19:48;;;;;;;14.70;5.47;;;;;;;;;;5001492;28;20729;-65
2023/10/24 13:22:13;;;;;;;14.32;4.53;;;;;;;;;;4999670;28;20800;-66
2023/10/24 13:24:38;;;;;;;12.60;4.75;;;;;;;;;;4999525;28;20030;-65
2023/10/24 13:27:04;;;;;;;20.25;6.32;;;;;;;;;;4997904;28;20124;-66
2023/10/24 13:29:29;;;;;;;9.73;4.90;;;;;;;;;;4997566;28;20026;-68
2023/10/24 13:31:56;;;;;;;13.35;5.25;;;;;;;;;;4999090;28;20243;-67
2023/10/24 13:34:21;;;;;;;17.00;5.00;;;;;;;;;;5000987;28;20063;-68
2023/10/24 13:36:47;;;;;;;9.88;4.50;;;;;;;;;;5000043;28;20021;-66
2023/10/24 13:39:14;;;;;;;11.05;4.28;;;;;;;;;;4997913;28;20025;-66
2023/10/24 13:41:39;;;;;;;13.63;5.13;;;;;;;;;;5013472;23;20139;-66
2023/10/24 13:44:05;;;;;;;15.05;5.35;;;;;;;;;;5001065;28;20085;-67
2023/10/24 13:46:30;;;;;;;14.13;5.43;;;;;;;;;;5001665;28;20029;-67
2023/10/24 13:48:57;;;;;;;13.18;5.38;;;;;;;;;;5000886;28;20033;-66
2023/10/24 13:51:22;;;;;;;10.32;4.93;;;;;;;;;;5008875;28;20056;-66
2023/10/24 13:53:48;;;;;;;12.63;4.82;;;;;;;;;;5013016;28;20030;-65
2023/10/24 13:56:13;;;;;;;15.43;5.70;;;;;;;;;;5011621;28;20021;-64
2023/10/24 13:58:38;;;;;;;10.68;5.05;;;;;;;;;;5009786;28;20159;-67
2023/10/24 14:01:04;;;;;;;13.20;4.13;;;;;;;;;;5012553;28;20022;-65
2023/10/24 14:03:29;;;;;;;10.52;4.10;;;;;;;;;;4992011;28;20029;-66
2023/10/24 14:05:54;;;;;;;9.60;4.45;;;;;;;;;;5013418;28;20591;-62
2023/10/24 14:08:20;;;;;;;10.68;3.50;;;;;;;;;;5008405;28;20543;-64
2023/10/24 14:10:45;;;;;;;8.20;3.30;;;;;;;;;;5011446;28;20025;-65
2023/10/24 14:13:10;;;;;;;8.80;3.17;;;;;;;;;;5009868;28;20021;-67
2023/10/24 14:15:36;;;;;;;5.32;2.67;;;;;;;;;;5009415;28;20474;-68
2023/10/24 14:18:01;;;;;;;7.40;3.50;;;;;;;;;;5014241;28;20131;-65
2023/10/24 14:20:27;;;;;;;10.07;3.65;;;;;;;;;;4998686;28;20041;-67
2023/10/24 14:22:52;;;;;;;6.53;3.25;;;;;;;;;;5016704;28;20032;-65
2023/10/24 14:25:18;;;;;;;7.10;3.10;;;;;;;;;;5013512;28;20033;-65
2023/10/24 14:27:43;;;;;;;7.47;3.63;;;;;;;;;;5017538;28;20109;-62
2023/10/24 14:30:09;;;;;;;14.30;3.60;;;;;;;;;;4999638;28;20060;-66